Time;durP1;ratioP1;P1;durP2;ratioP2;P2;SDS_P1;SDS_P2;PMS_P1;PMS_P2;Temp;Humidity;BMP_temperature;BMP_pressure;BME280_temperature;BME280_humidity;BME280_pressure;Samples;Min_cycle;Max_cycle;Signal;HPM_P1;HPM_P2
2022/01/28 00:00:52;;;;;;;17.55;5.13;;;;;;;25.53;31.29;95350.94;4914599;29;20115;-81
2022/01/28 00:03:18;;;;;;;17.33;5.38;;;;;;;25.53;31.46;95358.94;4913018;29;20032;-80
2022/01/28 00:05:55;;;;;;;19.85;5.53;;;;;;;25.50;31.56;95357.63;4914777;29;20028;-81
2022/01/28 00:08:23;;;;;;;21.40;6.00;;;;;;;25.53;31.59;95357.09;4916951;29;20039;-80
2022/01/28 00:10:57;;;;;;;17.67;5.60;;;;;;;25.52;31.71;95352.81;4916985;29;20030;-80
2022/01/28 00:13:32;;;;;;;27.77;5.85;;;;;;;25.51;31.73;95353.09;4933110;29;20032;-80
2022/01/28 00:38:28;;;;;;;25.38;5.93;;;;;;;25.47;31.44;95390.09;4907688;29;20076;-80
2022/01/28 00:40:53;;;;;;;30.83;6.28;;;;;;;25.47;31.63;95379.44;4909944;29;20109;-81
2022/01/28 00:43:18;;;;;;;30.80;6.40;;;;;;;25.50;31.49;95372.81;4914420;29;20032;-80
2022/01/28 00:45:44;;;;;;;37.03;6.13;;;;;;;25.48;31.62;95375.72;4897055;29;20035;-80
2022/01/28 00:48:09;;;;;;;29.15;6.72;;;;;;;25.45;31.68;95378.13;4919095;29;20139;-80
2022/01/28 00:50:34;;;;;;;32.80;6.65;;;;;;;25.49;31.45;95371.19;4920321;29;20047;-80
2022/01/28 00:53:06;;;;;;;43.25;7.07;;;;;;;25.41;31.81;95367.22;4911485;29;20032;-81
2022/01/28 00:55:31;;;;;;;32.47;6.10;;;;;;;25.45;31.47;95370.13;4920044;29;20099;-81
2022/01/28 00:57:56;;;;;;;31.55;6.72;;;;;;;25.49;31.54;95358.69;4916135;29;20043;-81
2022/01/28 01:00:22;;;;;;;28.48;6.80;;;;;;;25.47;31.44;95376.00;4915879;29;20032;-80
2022/01/28 01:02:47;;;;;;;34.65;5.85;;;;;;;25.44;31.74;95372.00;4912732;29;20029;-81
2022/01/28 01:05:13;;;;;;;30.52;6.25;;;;;;;25.46;31.72;95382.41;4913962;29;20071;-80
2022/01/28 01:07:38;;;;;;;25.23;5.97;;;;;;;25.43;31.68;95381.06;4915977;29;20016;-80
2022/01/28 01:10:07;;;;;;;28.65;6.30;;;;;;;25.43;31.61;95374.94;4914335;29;20027;-80
2022/01/28 01:12:40;;;;;;;30.48;6.85;;;;;;;25.44;31.68;95373.88;4912430;29;20036;-80
2022/01/28 01:15:14;;;;;;;26.25;5.93;;;;;;;25.43;31.56;95378.38;4904651;29;20059;-80
2022/01/28 01:17:46;;;;;;;;;;;;;;;25.91;31.14;95378.88;4913483;29;20036;-80
2022/01/28 01:22:40;;;;;;;27.98;6.28;;;;;;;25.50;31.43;95386.13;4913833;29;20092;-80
2022/01/28 01:25:15;;;;;;;29.67;6.60;;;;;;;25.45;31.45;95386.13;4926326;29;20031;-81
2022/01/28 01:27:53;;;;;;;24.58;5.95;;;;;;;25.47;31.61;95383.97;4911298;29;20024;-80
2022/01/28 01:30:19;;;;;;;23.85;5.80;;;;;;;25.47;31.70;95378.66;4884373;29;20043;-80
2022/01/28 01:32:44;;;;;;;29.55;5.75;;;;;;;25.43;31.63;95380.25;4915493;29;20036;-80
2022/01/28 01:35:10;;;;;;;20.73;5.28;;;;;;;25.43;31.62;95382.94;4927871;29;20123;-80
2022/01/28 01:37:47;;;;;;;23.92;5.72;;;;;;;25.43;31.60;95386.38;4901329;29;20121;-80
2022/01/28 01:40:13;;;;;;;23.77;5.70;;;;;;;25.44;31.54;95395.19;4913498;29;20063;-81
2022/01/28 01:42:54;;;;;;;24.73;6.20;;;;;;;25.38;31.55;95407.69;4899132;29;20043;-80
2022/01/28 01:53:24;;;;;;;23.55;5.85;;;;;;;25.42;31.71;95434.56;4915039;29;20103;-81
2022/01/28 01:55:49;;;;;;;21.08;5.18;;;;;;;25.41;31.49;95430.31;4930020;29;20039;-80
2022/01/28 01:58:23;;;;;;;22.70;5.78;;;;;;;25.33;31.46;95434.31;4914519;29;20032;-80
2022/01/28 02:00:48;;;;;;;24.27;5.20;;;;;;;25.38;31.26;95428.19;4914800;29;20036;-80
2022/01/28 02:03:22;;;;;;;22.75;6.85;;;;;;;25.35;31.55;95427.66;4930465;29;20039;-81
2022/01/28 02:05:48;;;;;;;20.20;5.28;;;;;;;25.41;31.31;95430.31;4929824;29;20095;-79
2022/01/28 02:08:13;;;;;;;21.38;5.65;;;;;;;25.43;31.37;95436.19;4913464;29;20036;-80
2022/01/28 02:10:41;;;;;;;23.02;5.22;;;;;;;25.35;31.49;95435.63;4929001;29;20060;-81
2022/01/28 02:13:07;;;;;;;22.55;5.10;;;;;;;25.43;31.37;95438.84;4920408;29;20024;-80
2022/01/28 02:15:32;;;;;;;20.92;4.80;;;;;;;25.36;31.79;95439.91;4913444;29;20036;-80
2022/01/28 02:18:00;;;;;;;17.30;4.70;;;;;;;25.39;31.49;95435.13;4913715;29;20028;-80
2022/01/28 02:20:31;;;;;;;20.80;4.95;;;;;;;25.38;31.42;95436.16;4909974;29;20095;-80
2022/01/28 02:23:11;;;;;;;16.83;4.78;;;;;;;25.34;31.69;95433.22;4922595;29;20427;-80
2022/01/28 02:25:36;;;;;;;21.17;4.90;;;;;;;25.38;31.45;95434.31;4905257;29;20036;-80
2022/01/28 02:28:05;;;;;;;19.33;5.10;;;;;;;25.36;31.38;95434.59;4928117;29;20035;-80
2022/01/28 02:30:30;;;;;;;20.33;4.80;;;;;;;25.37;31.43;95432.72;4891407;29;20043;-80
2022/01/28 02:33:10;;;;;;;17.75;4.63;;;;;;;25.36;31.69;95431.13;4898215;29;20028;-80
2022/01/28 02:35:44;;;;;;;17.65;4.55;;;;;;;25.40;31.35;95426.88;4912786;29;20032;-80
2022/01/28 02:38:10;;;;;;;18.77;4.55;;;;;;;25.37;31.22;95430.06;4913378;29;20034;-81
2022/01/28 02:40:37;;;;;;;17.02;4.30;;;;;;;25.36;31.34;95439.91;4909617;29;20031;-80
2022/01/28 02:43:26;;;;;;;15.35;4.60;;;;;;;25.38;31.30;95434.31;4882853;29;20074;-81
2022/01/28 02:46:02;;;;;;;19.77;4.50;;;;;;;25.36;31.27;95431.94;4915486;29;20071;-80
2022/01/28 02:48:29;;;;;;;19.50;4.93;;;;;;;25.39;31.29;95435.91;4914266;29;20048;-80
2022/01/28 02:53:28;;;;;;;18.83;4.25;;;;;;;25.32;31.37;95449.50;4915178;29;20038;-80
2022/01/28 02:56:02;;;;;;;17.35;4.88;;;;;;;25.35;31.29;95445.50;4914829;29;20036;-80
2022/01/28 02:58:31;;;;;;;13.07;4.55;;;;;;;25.33;31.63;95447.63;4916875;29;20040;-80
2022/01/28 03:00:58;;;;;;;16.77;4.38;;;;;;;25.31;31.42;95444.44;4929882;29;20040;-80
2022/01/28 03:03:24;;;;;;;19.10;4.53;;;;;;;25.34;31.66;95459.84;4908182;29;20047;-80
2022/01/28 03:05:50;;;;;;;16.77;4.28;;;;;;;25.36;31.33;95461.22;4899277;29;20174;-80
2022/01/28 03:08:16;;;;;;;18.15;4.05;;;;;;;25.35;31.21;95446.28;4914918;29;22256;-80
2022/01/28 03:16:12;;;;;;;15.32;4.38;;;;;;;25.31;31.34;95457.75;4826066;29;20034;-80
2022/01/28 03:18:49;;;;;;;17.58;4.32;;;;;;;25.27;31.47;95460.13;4806612;29;20046;-80
2022/01/28 03:24:05;;;;;;;15.10;3.97;;;;;;;25.34;31.54;95481.16;4855604;29;20052;-81
2022/01/28 03:26:33;;;;;;;12.93;4.13;;;;;;;25.29;31.63;95471.31;4826092;29;20054;-80
2022/01/28 03:28:59;;;;;;;13.65;4.05;;;;;;;25.32;31.41;95470.81;4826031;29;20033;-80
2022/01/28 03:31:24;;;;;;;11.48;4.00;;;;;;;25.33;31.45;95480.38;4809365;29;20097;-79
2022/01/28 03:33:49;;;;;;;18.23;3.90;;;;;;;25.31;31.51;95473.72;4825690;29;20124;-81
2022/01/28 03:36:15;;;;;;;11.02;4.15;;;;;;;25.33;31.42;95482.25;4823651;29;20058;-80
2022/01/28 03:38:46;;;;;;;15.40;4.40;;;;;;;25.34;31.51;95475.84;4839747;29;20053;-80
2022/01/28 03:41:16;;;;;;;13.30;3.75;;;;;;;25.32;31.63;95484.13;4858286;29;20041;-80
2022/01/28 03:43:45;;;;;;;12.75;4.82;;;;;;;25.35;31.44;95483.56;4843831;29;20042;-81
2022/01/28 03:46:13;;;;;;;12.00;4.00;;;;;;;25.27;31.51;95486.75;4841678;29;20042;-80
2022/01/28 03:48:40;;;;;;;12.52;3.78;;;;;;;25.32;31.56;95500.09;4858767;29;20076;-81
2022/01/28 03:51:06;;;;;;;16.55;4.10;;;;;;;25.35;31.43;95491.56;4894041;29;20042;-80
2022/01/28 03:53:33;;;;;;;10.10;3.47;;;;;;;25.32;31.26;95478.78;4921810;29;20042;-80
2022/01/28 03:55:58;;;;;;;13.55;3.80;;;;;;;25.31;31.60;95489.69;4903305;29;20040;-80
2022/01/28 03:58:27;;;;;;;12.10;3.63;;;;;;;25.24;31.40;95489.94;4916117;29;20040;-80
2022/01/28 04:00:55;;;;;;;11.95;3.92;;;;;;;25.31;31.54;95492.34;4899715;29;20040;-80
2022/01/28 04:11:27;;;;;;;8.77;3.53;;;;;;;25.30;31.56;95496.88;4925133;29;20040;-81
2022/01/28 04:11:38;;;;;;;9.77;3.60;;;;;;;25.35;31.39;95499.53;4916075;29;20091;-81
2022/01/28 04:14:26;;;;;;;13.10;3.55;;;;;;;25.32;31.28;95500.09;4918910;29;20052;-80
2022/01/28 04:19:32;;;;;;;12.75;3.92;;;;;;;25.33;31.33;95520.31;4901404;29;20036;-80
2022/01/28 04:21:57;;;;;;;7.38;3.17;;;;;;;25.31;31.42;95522.44;4918213;29;20114;-79
2022/01/28 04:24:31;;;;;;;7.43;3.60;;;;;;;25.26;31.57;95522.41;4888287;29;20043;-81
2022/01/28 04:26:58;;;;;;;10.98;3.60;;;;;;;25.28;31.39;95506.19;4916647;29;20024;-81
2022/01/28 04:29:26;;;;;;;10.38;3.55;;;;;;;25.26;31.61;95511.75;4915903;29;20047;-80
2022/01/28 04:31:51;;;;;;;9.02;3.58;;;;;;;25.31;31.35;95503.00;4915465;29;20036;-80
2022/01/28 04:34:17;;;;;;;9.82;3.40;;;;;;;25.29;31.56;95511.25;4916053;29;20099;-81
2022/01/28 04:44:45;;;;;;;10.18;3.13;;;;;;;25.31;31.38;95517.09;4910417;29;20043;-81
2022/01/28 04:47:42;;;;;;;;;;;;;;;25.82;30.71;95523.56;4925500;29;20036;-81
2022/01/28 05:07:54;;;;;;;6.05;3.20;;;;;;;25.25;31.32;95531.47;4916361;29;20043;-80
2022/01/28 05:26:58;;;;;;;7.72;3.13;;;;;;;25.27;31.13;95539.22;4903684;29;20384;-81
2022/01/28 05:29:23;;;;;;;7.10;3.00;;;;;;;25.28;31.06;95548.78;4918984;29;20099;-80
2022/01/28 05:31:49;;;;;;;5.88;2.90;;;;;;;25.24;31.26;95550.38;4914436;29;20028;-81
2022/01/28 05:34:15;;;;;;;8.77;2.85;;;;;;;25.21;31.17;95557.00;4884053;29;20211;-80
2022/01/28 05:36:49;;;;;;;7.82;3.00;;;;;;;25.25;30.94;95558.09;4875467;29;20159;-81
2022/01/28 05:39:14;;;;;;;8.35;3.20;;;;;;;25.26;30.65;95557.03;4863778;29;20518;-79
2022/01/28 05:41:40;;;;;;;5.72;2.95;;;;;;;25.24;30.77;95559.16;4895346;29;20036;-80
2022/01/28 05:44:05;;;;;;;8.68;3.53;;;;;;;25.24;30.91;95575.13;4880913;29;20036;-81
2022/01/28 05:46:34;;;;;;;6.28;3.08;;;;;;;25.30;30.99;95582.09;4911782;29;20048;-82
2022/01/28 05:48:59;;;;;;;6.78;3.05;;;;;;;25.28;30.87;95584.19;4864682;29;20040;-82
2022/01/28 05:51:25;;;;;;;7.38;2.80;;;;;;;25.33;30.46;95591.41;4863282;29;20041;-82
2022/01/28 05:53:50;;;;;;;9.95;2.80;;;;;;;25.34;30.69;95591.16;4848803;29;20045;-82
2022/01/28 05:56:16;;;;;;;5.55;3.00;;;;;;;25.37;30.59;95603.13;4899371;29;20067;-82
2022/01/28 05:58:43;;;;;;;6.93;2.88;;;;;;;25.39;29.87;95603.66;4913998;29;20095;-81
2022/01/28 06:01:09;;;;;;;5.25;2.88;;;;;;;25.37;30.29;95613.78;4911893;29;20067;-82
2022/01/28 06:03:34;;;;;;;5.95;2.80;;;;;;;25.38;30.22;95612.72;4881018;29;20063;-82
2022/01/28 06:06:04;;;;;;;8.05;3.20;;;;;;;25.36;30.48;95612.97;4898352;29;20028;-82
2022/01/28 06:08:30;;;;;;;7.93;3.00;;;;;;;25.39;30.04;95608.19;4897117;29;20039;-82
2022/01/28 06:10:55;;;;;;;8.70;3.53;;;;;;;25.39;30.15;95611.66;4897194;29;20039;-82
2022/01/28 06:13:23;;;;;;;7.50;2.90;;;;;;;25.35;30.40;95603.38;4910276;29;20039;-82
2022/01/28 06:15:56;;;;;;;7.43;2.67;;;;;;;25.35;30.28;95613.22;4896785;29;20035;-82
2022/01/28 06:18:22;;;;;;;6.55;2.72;;;;;;;25.39;30.31;95621.50;4913056;29;20031;-82
2022/01/28 06:20:47;;;;;;;6.90;2.50;;;;;;;25.34;30.14;95641.72;4916894;29;20079;-82
2022/01/28 06:23:13;;;;;;;7.57;2.42;;;;;;;25.34;30.49;95647.06;4897864;29;20024;-82
2022/01/28 06:25:39;;;;;;;7.68;2.78;;;;;;;25.32;30.34;95643.03;4896960;29;20024;-82
2022/01/28 06:28:05;;;;;;;9.63;2.58;;;;;;;25.33;30.77;95634.00;4913256;29;20029;-82
2022/01/28 06:30:33;;;;;;;10.50;2.65;;;;;;;25.33;30.72;95637.44;4911940;29;20066;-81
2022/01/28 06:32:58;;;;;;;10.45;3.00;;;;;;;25.34;30.26;95638.25;4909773;29;20039;-81
2022/01/28 06:35:29;;;;;;;21.95;3.33;;;;;;;25.27;30.80;95630.50;4913477;29;20035;-82
2022/01/28 06:37:54;;;;;;;12.73;3.10;;;;;;;25.31;30.83;95642.25;4944773;28;20024;-81
2022/01/28 06:40:20;;;;;;;11.05;2.25;;;;;;;25.33;30.65;95642.00;4895150;29;20555;-82
2022/01/28 06:42:47;;;;;;;6.25;3.00;;;;;;;25.34;30.25;95639.06;4897292;29;20024;-82
2022/01/28 06:45:15;;;;;;;10.57;2.70;;;;;;;25.34;30.26;95640.91;4912808;29;20028;-82
2022/01/28 06:47:43;;;;;;;8.57;2.60;;;;;;;25.34;30.32;95651.56;4898699;29;20032;-82
2022/01/28 06:50:09;;;;;;;12.30;2.80;;;;;;;25.34;30.24;95657.72;4912118;29;20027;-81
2022/01/28 06:52:34;;;;;;;9.98;3.05;;;;;;;25.36;30.14;95658.25;4944115;29;20156;-82
2022/01/28 06:55:03;;;;;;;12.98;2.50;;;;;;;25.36;30.61;95660.13;4911021;29;20032;-82
2022/01/28 06:57:29;;;;;;;9.52;2.92;;;;;;;25.40;30.11;95657.72;4894500;29;20028;-81
2022/01/28 06:59:54;;;;;;;8.85;2.70;;;;;;;25.39;30.29;95661.44;4894510;29;20028;-82
2022/01/28 07:02:20;;;;;;;8.25;2.42;;;;;;;25.41;30.73;95667.31;4927002;29;20064;-82
2022/01/28 07:04:45;;;;;;;9.32;2.55;;;;;;;25.42;30.48;95674.22;4913129;29;20024;-82
2022/01/28 07:07:11;;;;;;;5.88;2.83;;;;;;;25.44;30.31;95677.47;4878048;29;20024;-82
2022/01/28 07:09:36;;;;;;;7.07;2.92;;;;;;;25.43;30.71;95676.63;4912854;29;20024;-82
2022/01/28 07:12:04;;;;;;;9.93;2.42;;;;;;;25.39;30.63;95680.88;4906824;29;20032;-81
2022/01/28 07:14:35;;;;;;;11.57;2.55;;;;;;;25.39;30.46;95677.41;4911031;29;20032;-82
2022/01/28 07:17:01;;;;;;;9.55;2.78;;;;;;;25.42;30.54;95675.03;4911025;29;20108;-81
2022/01/28 07:19:26;;;;;;;10.65;3.42;;;;;;;25.38;30.85;95676.63;4896718;29;20109;-81
2022/01/28 07:21:52;;;;;;;13.45;4.00;;;;;;;25.34;30.52;95679.00;4882393;29;20039;-81
2022/01/28 07:24:17;;;;;;;12.93;4.00;;;;;;;25.33;30.81;95680.06;4913158;29;20031;-81
2022/01/28 07:26:45;;;;;;;10.35;3.80;;;;;;;25.34;30.55;95683.50;4881928;29;20038;-81
2022/01/28 07:29:13;;;;;;;8.73;4.05;;;;;;;25.34;30.23;95687.00;4896029;29;20028;-82
2022/01/28 07:31:59;;;;;;;9.85;4.43;;;;;;;25.45;30.39;95692.34;4896442;29;20039;-82
2022/01/28 07:34:33;;;;;;;14.40;3.97;;;;;;;25.40;30.46;95697.66;4878531;29;20232;-82
2022/01/28 07:36:59;;;;;;;13.52;4.78;;;;;;;25.38;30.46;95710.41;4873639;29;20057;-82
2022/01/28 07:39:30;;;;;;;14.77;4.60;;;;;;;25.35;30.99;95691.25;4846758;29;20112;-82
2022/01/28 07:41:56;;;;;;;18.88;4.47;;;;;;;25.32;31.17;95681.13;4859283;29;20192;-82
2022/01/28 07:44:30;;;;;;;11.57;4.20;;;;;;;25.35;30.99;95688.59;4837506;29;20036;-82
2022/01/28 07:46:56;;;;;;;17.73;4.32;;;;;;;25.39;30.52;95688.06;4842765;29;20033;-81
2022/01/28 07:49:24;;;;;;;13.30;3.67;;;;;;;25.38;30.04;95689.13;4842678;29;20041;-81
2022/01/28 07:51:50;;;;;;;15.00;4.28;;;;;;;25.36;29.96;95698.19;4838724;29;20121;-83
2022/01/28 07:54:15;;;;;;;17.80;4.43;;;;;;;25.35;29.95;95703.75;4858807;29;20048;-83
2022/01/28 07:56:42;;;;;;;12.50;4.10;;;;;;;25.38;30.22;95711.25;4826505;29;20037;-82
2022/01/28 07:59:09;;;;;;;12.45;3.67;;;;;;;25.33;30.04;95706.69;4859552;29;20037;-83
2022/01/28 08:01:37;;;;;;;17.08;4.03;;;;;;;25.30;30.22;95709.88;4840313;29;20062;-83
2022/01/28 08:04:07;;;;;;;17.60;4.22;;;;;;;25.28;30.49;95719.97;4845131;29;20117;-83
2022/01/28 08:06:33;;;;;;;16.40;3.63;;;;;;;25.31;30.47;95723.97;4914882;29;20069;-82
2022/01/28 08:08:59;;;;;;;10.50;3.95;;;;;;;25.29;30.48;95724.25;4912610;29;20047;-83
2022/01/28 08:11:25;;;;;;;14.40;3.75;;;;;;;25.30;30.66;95719.72;4920964;29;20024;-83
2022/01/28 08:13:50;;;;;;;16.60;3.83;;;;;;;25.33;30.55;95714.66;4928257;29;20033;-83
2022/01/28 08:16:15;;;;;;;13.30;3.65;;;;;;;25.32;30.31;95714.91;4906593;29;20044;-83
2022/01/28 08:18:41;;;;;;;13.30;4.13;;;;;;;25.33;30.40;95725.31;4913002;29;20221;-83
2022/01/28 08:21:06;;;;;;;11.43;3.92;;;;;;;25.35;30.57;95731.19;4926265;29;20024;-87
2022/01/28 08:23:41;;;;;;;15.15;3.70;;;;;;;25.31;30.80;95722.13;4912764;29;20076;-82
2022/01/28 08:26:06;;;;;;;12.20;3.55;;;;;;;25.32;30.77;95736.22;4912888;29;20028;-81
2022/01/28 08:28:32;;;;;;;7.15;3.20;;;;;;;25.30;30.83;95736.50;4884240;29;20435;-82
2022/01/28 08:30:57;;;;;;;11.35;3.70;;;;;;;25.29;31.21;95732.22;4915262;29;20099;-81
2022/01/28 08:33:25;;;;;;;13.70;3.60;;;;;;;25.30;31.15;95749.81;4900732;29;20040;-81
2022/01/28 08:35:53;;;;;;;13.73;3.55;;;;;;;25.32;30.93;95761.00;4916753;29;20053;-81
2022/01/28 08:38:25;;;;;;;16.60;3.40;;;;;;;25.33;30.85;95761.81;4931364;29;20118;-82
2022/01/28 08:40:52;;;;;;;11.43;2.88;;;;;;;25.35;31.19;95754.34;4913811;29;20028;-81
2022/01/28 08:43:20;;;;;;;10.82;3.42;;;;;;;25.33;31.17;95746.63;4897464;29;20063;-81
2022/01/28 08:45:50;;;;;;;14.57;4.18;;;;;;;25.26;31.07;95740.72;4898754;29;20032;-81
2022/01/28 08:48:15;;;;;;;;;;;;;;;25.84;30.38;95743.38;4898452;29;20036;-81
2022/01/28 08:50:43;;;;;;;15.38;3.30;;;;;;;25.47;30.74;95754.16;4913597;29;19974;-81
2022/01/28 08:53:11;;;;;;;15.07;3.35;;;;;;;25.35;31.35;95757.03;4927398;29;20058;-82
2022/01/28 08:55:38;;;;;;;12.27;3.33;;;;;;;25.31;31.35;95753.28;4913748;29;20044;-81
2022/01/28 08:58:13;;;;;;;10.45;3.80;;;;;;;25.30;31.56;95749.81;4926541;29;20028;-81
2022/01/28 09:00:39;;;;;;;11.43;3.28;;;;;;;25.28;31.30;95749.25;4921181;29;20083;-81
2022/01/28 09:03:05;;;;;;;17.80;3.40;;;;;;;25.27;31.31;95742.34;4929268;29;20032;-81
2022/01/28 09:05:30;;;;;;;13.15;3.20;;;;;;;25.28;31.03;95743.91;4897600;29;20032;-81
2022/01/28 09:07:56;;;;;;;20.00;3.88;;;;;;;25.26;31.47;95748.69;4914166;29;20066;-81
2022/01/28 09:10:29;;;;;;;16.88;3.65;;;;;;;25.27;31.46;95752.19;4912941;29;20126;-81
2022/01/28 09:15:38;;;;;;;23.17;4.60;;;;;;;25.23;35.55;95759.88;4913480;29;20032;-81
2022/01/28 09:18:06;;;;;;;16.52;3.75;;;;;;;25.28;33.04;95757.22;4911499;29;20036;-81
2022/01/28 09:20:32;;;;;;;17.30;4.30;;;;;;;25.28;32.69;95757.22;4896619;29;20104;-81
2022/01/28 09:23:09;;;;;;;15.57;3.30;;;;;;;25.27;32.58;95757.50;4897842;29;20035;-81
2022/01/28 09:25:37;;;;;;;14.35;3.40;;;;;;;25.34;32.29;95752.75;4913169;29;20078;-81
2022/01/28 09:28:03;;;;;;;14.55;3.25;;;;;;;25.31;32.39;95754.06;4882233;29;20028;-81
2022/01/28 09:30:28;;;;;;;15.73;3.20;;;;;;;25.31;32.29;95759.38;4897591;29;20052;-81
2022/01/28 09:33:03;;;;;;;12.73;3.60;;;;;;;25.32;32.26;95769.00;4896581;29;20212;-81
2022/01/28 09:35:29;;;;;;;16.42;3.50;;;;;;;25.32;32.12;95769.00;4923584;29;20031;-81
2022/01/28 09:37:54;;;;;;;12.45;3.65;;;;;;;25.34;31.72;95766.88;4909539;29;20039;-81
2022/01/28 09:40:22;;;;;;;10.60;3.72;;;;;;;25.34;31.99;95771.38;4913624;29;20039;-81
2022/01/28 09:42:57;;;;;;;13.13;3.92;;;;;;;25.35;31.93;95778.31;4910948;29;20032;-81
2022/01/28 09:45:24;;;;;;;12.23;3.40;;;;;;;25.34;32.07;95779.38;4905860;29;20023;-81
2022/01/28 09:47:53;;;;;;;7.55;3.50;;;;;;;25.33;31.97;95781.22;4913464;29;20351;-81
2022/01/28 09:50:21;;;;;;;12.10;3.40;;;;;;;25.38;32.03;95782.31;4928742;29;20031;-81
2022/01/28 09:52:47;;;;;;;14.35;3.55;;;;;;;25.36;31.98;95783.41;4929881;29;20061;-81
2022/01/28 09:55:13;;;;;;;11.18;3.58;;;;;;;25.35;31.97;95787.09;4926993;29;20036;-83
2022/01/28 09:57:41;;;;;;;13.77;3.70;;;;;;;25.38;31.81;95785.81;4913013;29;20035;-81
2022/01/28 10:00:08;;;;;;;13.40;3.55;;;;;;;25.38;31.94;95784.97;4897779;29;20127;-81
2022/01/28 10:02:52;;;;;;;11.98;3.28;;;;;;;25.47;32.26;95792.22;4911690;29;20036;-81
2022/01/28 10:05:29;;;;;;;10.35;3.55;;;;;;;25.43;32.13;95787.69;4927155;29;20028;-81
2022/01/28 10:08:15;;;;;;;14.68;3.53;;;;;;;25.45;32.11;95796.22;4896645;29;20074;-81
2022/01/28 10:10:41;;;;;;;11.43;3.17;;;;;;;25.41;32.29;95787.13;4928806;29;20040;-81
2022/01/28 10:13:17;;;;;;;12.52;2.88;;;;;;;25.40;32.46;95794.34;4929049;29;20023;-81
2022/01/28 10:16:00;;;;;;;7.88;2.78;;;;;;;25.44;32.67;95791.97;4878870;29;20036;-81
2022/01/28 10:18:43;;;;;;;11.25;3.53;;;;;;;25.42;32.54;95786.06;4930298;29;20046;-81
2022/01/28 10:21:24;;;;;;;10.27;3.40;;;;;;;25.44;32.43;95779.44;4924275;29;20036;-81
2022/01/28 10:23:55;;;;;;;8.88;2.95;;;;;;;25.38;32.61;95784.97;4929874;29;20077;-81
2022/01/28 10:26:37;;;;;;;11.75;3.10;;;;;;;25.42;32.65;95775.41;4928532;29;20118;-81
2022/01/28 10:29:11;;;;;;;7.60;3.35;;;;;;;25.39;33.01;95767.97;4928198;29;20036;-81
2022/01/28 10:31:43;;;;;;;10.48;3.03;;;;;;;25.41;32.91;95771.97;4913323;29;20032;-81
2022/01/28 10:34:14;;;;;;;6.75;2.92;;;;;;;25.39;32.77;95768.75;4913176;29;20027;-81
2022/01/28 10:36:42;;;;;;;8.25;2.80;;;;;;;25.41;32.70;95774.63;4909646;29;20036;-82
2022/01/28 10:39:13;;;;;;;11.43;2.90;;;;;;;25.41;32.76;95779.16;4897413;29;20100;-81
2022/01/28 10:41:42;;;;;;;9.60;3.20;;;;;;;25.48;33.14;95774.41;4927483;29;20035;-81
2022/01/28 10:44:08;;;;;;;10.40;3.42;;;;;;;25.53;33.25;95771.75;4895518;29;20060;-81
2022/01/28 10:46:35;;;;;;;9.55;3.60;;;;;;;25.49;33.77;95768.00;4877847;29;20032;-82
2022/01/28 10:49:08;;;;;;;9.73;3.30;;;;;;;25.44;33.88;95762.66;4912274;29;20036;-81
2022/01/28 10:51:50;;;;;;;8.07;3.35;;;;;;;25.52;33.48;95764.84;4896294;29;20044;-81
2022/01/28 10:54:16;;;;;;;11.73;3.88;;;;;;;25.45;33.61;95765.06;4912097;29;20091;-81
2022/01/28 10:56:46;;;;;;;9.32;3.20;;;;;;;25.45;33.68;95754.41;4911412;29;20028;-81
2022/01/28 10:59:12;;;;;;;9.40;3.70;;;;;;;25.52;33.85;95757.63;4929236;29;20035;-81
2022/01/28 11:01:40;;;;;;;9.30;3.50;;;;;;;25.50;33.82;95756.31;4923563;29;20036;-82
2022/01/28 11:04:08;;;;;;;9.57;3.20;;;;;;;25.51;34.06;95752.56;4929060;29;20039;-81
2022/01/28 11:06:34;;;;;;;9.25;3.13;;;;;;;25.53;34.08;95758.44;4903460;29;20036;-81
2022/01/28 11:09:04;;;;;;;12.65;3.28;;;;;;;25.53;34.25;95753.09;4895978;29;21266;-81
2022/01/28 11:11:30;;;;;;;10.30;3.20;;;;;;;25.53;33.81;95753.94;4909951;29;20039;-82
2022/01/28 11:13:55;;;;;;;7.82;3.20;;;;;;;25.55;33.92;95750.97;4926972;29;20024;-81
2022/01/28 11:16:21;;;;;;;11.13;3.90;;;;;;;25.50;33.98;95751.78;4920556;29;20040;-82
2022/01/28 11:18:48;;;;;;;11.10;3.42;;;;;;;25.48;34.07;95740.56;4913526;29;20028;-81
2022/01/28 11:21:16;;;;;;;7.43;3.30;;;;;;;25.49;33.94;95738.72;4887568;29;20040;-81
2022/01/28 11:24:13;;;;;;;9.30;3.30;;;;;;;25.49;34.05;95738.72;4912200;29;20024;-81
2022/01/28 11:26:56;;;;;;;5.75;3.08;;;;;;;25.52;33.72;95733.66;4909947;29;20024;-82
2022/01/28 11:29:26;;;;;;;10.98;3.35;;;;;;;25.47;34.20;95749.63;4895549;29;20115;-82
2022/01/28 11:32:15;;;;;;;9.70;3.35;;;;;;;25.52;34.26;95732.88;4928116;29;20038;-82
2022/01/28 11:35:02;;;;;;;9.43;3.38;;;;;;;25.61;34.16;95733.97;4927368;29;20040;-82
2022/01/28 11:37:33;;;;;;;10.35;3.15;;;;;;;25.58;34.35;95733.69;4925678;29;20028;-82
2022/01/28 11:40:19;;;;;;;13.25;3.03;;;;;;;25.66;34.28;95733.97;4909976;29;20091;-82
2022/01/28 11:42:44;;;;;;;10.38;3.20;;;;;;;25.61;34.45;95725.16;4929082;29;20067;-82
2022/01/28 11:45:10;;;;;;;8.40;2.92;;;;;;;25.55;34.35;95719.03;4895861;29;20047;-82
2022/01/28 11:47:40;;;;;;;9.40;3.10;;;;;;;25.54;34.39;95715.56;4928919;29;20042;-83
2022/01/28 11:50:18;;;;;;;8.32;3.03;;;;;;;25.59;34.53;95722.78;4912520;29;20095;-82
2022/01/28 11:53:05;;;;;;;12.02;3.40;;;;;;;25.53;34.20;95713.16;4898887;29;20040;-82
2022/01/28 11:55:39;;;;;;;10.80;3.30;;;;;;;25.54;34.25;95710.22;4922413;29;20036;-83
2022/01/28 11:58:13;;;;;;;10.65;3.10;;;;;;;25.53;34.25;95710.50;4914004;29;20040;-82
2022/01/28 12:00:41;;;;;;;8.52;3.10;;;;;;;25.53;34.16;95705.16;4914801;29;20028;-81
2022/01/28 12:03:25;;;;;;;8.80;3.35;;;;;;;25.50;34.40;95706.50;4930092;29;20122;-81
2022/01/28 12:05:57;;;;;;;11.52;3.10;;;;;;;25.50;34.31;95703.03;4917221;29;20058;-82
2022/01/28 12:08:25;;;;;;;7.35;2.95;;;;;;;25.51;34.09;95699.28;4932343;29;20045;-81
2022/01/28 12:10:52;;;;;;;10.50;3.67;;;;;;;25.52;33.84;95712.34;4917837;29;20031;-82
2022/01/28 12:13:20;;;;;;;10.05;3.38;;;;;;;25.50;33.89;95714.47;4897867;29;20052;-82
2022/01/28 12:19:02;;;;;;;11.38;3.30;;;;;;;25.68;33.92;95705.25;4931625;29;20119;-82
2022/01/28 12:21:40;;;;;;;11.20;2.92;;;;;;;25.56;33.69;95712.66;4856538;29;20132;-81
2022/01/28 12:24:35;;;;;;;13.07;3.17;;;;;;;25.71;34.00;95710.03;4854974;29;20148;-81
2022/01/28 12:27:00;;;;;;;9.80;3.20;;;;;;;25.67;33.63;95705.50;4834313;29;20050;-82
2022/01/28 12:29:45;;;;;;;13.13;3.15;;;;;;;25.71;34.03;95699.38;4851769;29;20058;-82
2022/01/28 12:32:11;;;;;;;12.85;3.70;;;;;;;25.62;34.27;95692.94;4850855;29;20056;-82
2022/01/28 12:34:44;;;;;;;16.42;3.45;;;;;;;25.60;34.96;95696.94;4839969;29;20070;-82
2022/01/28 12:37:09;;;;;;;11.27;3.20;;;;;;;25.65;34.77;95700.44;4822747;29;20188;-82
2022/01/28 12:39:51;;;;;;;15.18;3.42;;;;;;;25.69;34.96;95696.19;4854386;29;20046;-82
2022/01/28 12:42:33;;;;;;;7.53;3.00;;;;;;;25.71;34.78;95698.59;4797259;29;20043;-82
2022/01/28 12:44:59;;;;;;;12.23;3.53;;;;;;;25.76;35.21;95690.63;4792128;29;20114;-82
2022/01/28 12:47:28;;;;;;;13.10;3.25;;;;;;;25.73;35.32;95681.25;4785405;29;20103;-82
2022/01/28 12:50:02;;;;;;;9.98;2.90;;;;;;;25.73;35.02;95688.47;4791518;29;20059;-82
2022/01/28 12:52:40;;;;;;;17.23;3.63;;;;;;;25.79;35.79;95690.06;4794134;29;20126;-81
2022/01/28 12:55:06;;;;;;;12.07;3.05;;;;;;;25.81;35.21;95693.28;4791459;29;20043;-81
2022/01/28 12:57:36;;;;;;;10.63;3.42;;;;;;;25.81;35.29;95677.28;4816710;29;20050;-81
2022/01/28 13:00:01;;;;;;;;;;;;;;;26.31;34.18;95680.31;4824547;29;20057;-82
2022/01/28 13:02:32;;;;;;;15.10;3.13;;;;;;;25.93;34.83;95677.91;4875943;29;19919;-82
2022/01/28 13:05:12;;;;;;;11.82;3.05;;;;;;;25.91;35.11;95676.50;4884464;29;20364;-81
2022/01/28 13:10:31;;;;;;;10.32;2.85;;;;;;;25.93;35.39;95685.88;4915635;29;20095;-81
2022/01/28 13:13:04;;;;;;;11.95;3.40;;;;;;;25.96;35.59;95687.22;4913852;29;20024;-81
2022/01/28 13:15:30;;;;;;;10.80;3.20;;;;;;;26.01;35.80;95692.56;4911773;29;20032;-81
2022/01/28 13:17:59;;;;;;;9.95;3.10;;;;;;;26.04;35.74;95681.34;4943251;28;20035;-81
2022/01/28 13:20:30;;;;;;;10.68;2.95;;;;;;;26.04;35.66;95676.03;4930525;29;20036;-82
2022/01/28 13:22:56;;;;;;;10.18;3.00;;;;;;;26.01;35.63;95671.25;4930187;29;20024;-81